createdAt,value
2023-10-29T08:50:32.257Z,44.19
2023-10-29T08:51:46.029Z,43.80
2023-10-29T08:52:19.251Z,42.78
2023-10-29T08:52:51.818Z,42.60
2023-10-29T08:53:24.310Z,42.15
2023-10-29T08:53:58.585Z,41.58
2023-10-29T08:54:31.171Z,41.76
2023-10-29T08:55:05.012Z,42.24
2023-10-29T08:55:37.563Z,42.71
2023-10-29T08:56:10.118Z,42.34
2023-10-29T08:56:42.685Z,41.59
2023-10-29T08:57:15.308Z,42.58
2023-10-29T08:57:47.828Z,42.22
2023-10-29T08:58:21.984Z,41.76
2023-10-29T08:58:54.527Z,42.72
2023-10-29T08:59:27.046Z,42.30
2023-10-29T08:59:59.609Z,41.70
2023-10-29T09:00:45.530Z,42.31
2023-10-29T09:01:19.332Z,41.69
2023-10-29T09:01:53.502Z,41.39
2023-10-29T09:02:26.574Z,40.94
2023-10-29T09:02:59.324Z,40.34
2023-10-29T09:03:32.143Z,41.03
2023-10-29T09:04:05.926Z,40.67
2023-10-29T09:04:39.881Z,40.63
2023-10-29T09:05:12.939Z,41.72
2023-10-29T09:05:47.702Z,40.94
2023-10-29T09:06:21.753Z,41.58
2023-10-29T09:06:54.500Z,42.43
2023-10-29T09:07:27.040Z,40.48
2023-10-29T09:07:59.640Z,40.24
2023-10-29T09:08:35.918Z,40.67
2023-10-29T09:09:08.505Z,40.39
2023-10-29T09:09:41.744Z,41.08
2023-10-29T09:10:15.493Z,40.10
2023-10-29T09:10:47.996Z,39.90
2023-10-29T09:11:20.500Z,39.78
2023-10-29T09:11:54.690Z,39.52
2023-10-29T09:12:27.294Z,39.23
2023-10-29T09:13:00.945Z,39.49
2023-10-29T09:13:33.658Z,40.17
2023-10-29T09:14:08.770Z,40.65
2023-10-29T09:14:41.439Z,40.94
2023-10-29T09:15:14.009Z,40.43
2023-10-29T09:15:46.527Z,40.55
2023-10-29T09:16:19.085Z,39.73
2023-10-29T09:16:51.615Z,39.22
2023-10-29T09:17:24.293Z,39.66
2023-10-29T09:17:56.962Z,40.00
2023-10-29T09:18:30.265Z,39.84
2023-10-29T09:19:03.514Z,39.88
2023-10-29T09:19:36.358Z,40.79
2023-10-29T09:20:09.322Z,39.86
2023-10-29T09:20:42.064Z,39.72
2023-10-29T09:21:15.202Z,38.92
2023-10-29T09:21:48.601Z,38.99
2023-10-29T09:22:21.172Z,38.43
2023-10-29T09:22:53.745Z,38.45
2023-10-29T09:23:26.947Z,39.69
2023-10-29T09:24:00.351Z,40.02
2023-10-29T09:24:32.866Z,39.72
2023-10-29T09:25:05.891Z,38.75
2023-10-29T09:25:38.381Z,38.25
2023-10-29T09:26:10.963Z,38.73
2023-10-29T09:26:43.529Z,38.46
2023-10-29T09:27:16.031Z,38.11
2023-10-29T09:27:48.591Z,37.18
2023-10-29T09:28:22.453Z,37.16
2023-10-29T09:28:54.986Z,37.89
2023-10-29T09:29:27.735Z,38.84
2023-10-29T09:30:00.345Z,38.98
2023-10-29T09:30:33.136Z,38.12
2023-10-29T09:31:05.615Z,37.50
2023-10-29T09:31:38.155Z,37.23
2023-10-29T09:32:10.758Z,37.20
2023-10-29T09:32:45.991Z,37.77
2023-10-29T09:33:18.670Z,37.03
2023-10-29T09:33:51.262Z,36.91
2023-10-29T09:34:23.759Z,38.18
2023-10-29T09:34:56.248Z,37.60
2023-10-29T09:35:28.767Z,37.71
2023-10-29T09:36:01.642Z,37.96
2023-10-29T09:36:34.149Z,37.85
2023-10-29T09:37:06.663Z,37.81
2023-10-29T09:37:39.187Z,37.93
2023-10-29T09:38:12.408Z,39.01
2023-10-29T09:38:45.082Z,38.78
2023-10-29T09:39:18.745Z,38.11
2023-10-29T09:39:51.378Z,37.92
2023-10-29T09:40:23.930Z,38.75
2023-10-29T09:40:56.891Z,39.17
2023-10-29T09:41:32.481Z,39.51
2023-10-29T09:42:09.764Z,40.11
2023-10-29T09:43:00.705Z,40.18
2023-10-29T09:43:40.373Z,40.50
2023-10-29T09:44:20.323Z,41.89
2023-10-29T09:44:59.196Z,42.40
2023-10-29T09:45:34.269Z,42.39
2023-10-29T09:46:07.170Z,42.92
2023-10-29T09:46:39.915Z,43.79
2023-10-29T09:47:18.658Z,45.30
2023-10-29T09:47:51.869Z,44.12
2023-10-29T09:48:26.526Z,44.06
2023-10-29T09:48:59.619Z,43.44
2023-10-29T09:49:32.219Z,44.08
2023-10-29T09:50:05.496Z,44.95
2023-10-29T09:50:38.082Z,45.46
2023-10-29T09:51:11.472Z,44.89
2023-10-29T09:51:44.101Z,43.78
2023-10-29T09:52:18.029Z,44.26
2023-10-29T09:52:51.945Z,44.18
2023-10-29T09:53:25.375Z,43.66
2023-10-29T09:54:00.668Z,43.73
2023-10-29T09:54:33.482Z,45.33
2023-10-29T09:55:08.980Z,46.05
2023-10-29T09:55:41.836Z,44.71
2023-10-29T09:56:14.794Z,44.30
2023-10-29T09:56:47.460Z,44.65
2023-10-29T09:57:19.965Z,45.35
2023-10-29T09:57:52.644Z,44.96
2023-10-29T09:58:26.065Z,45.70
2023-10-29T09:58:58.605Z,44.62
2023-10-29T09:59:31.153Z,44.92
2023-10-29T10:00:04.272Z,44.72
2023-10-29T10:00:37.771Z,45.57
2023-10-29T10:01:10.901Z,44.75
2023-10-29T10:01:57.536Z,45.04
2023-10-29T10:02:30.957Z,45.28
2023-10-29T10:03:04.146Z,45.52
2023-10-29T10:03:37.708Z,45.75
2023-10-29T10:04:10.568Z,45.90
2023-10-29T10:04:44.756Z,46.31
2023-10-29T10:05:21.463Z,46.95
2023-10-29T10:05:55.385Z,46.59
2023-10-29T10:06:28.668Z,46.19
2023-10-29T10:07:03.628Z,46.37
2023-10-29T10:07:36.149Z,47.06
2023-10-29T10:08:09.086Z,46.61
2023-10-29T10:08:41.644Z,46.03
2023-10-29T10:09:15.249Z,45.91
2023-10-29T10:09:57.791Z,46.19
2023-10-29T10:10:43.059Z,46.54
2023-10-29T10:11:23.492Z,47.31
2023-10-29T10:12:05.941Z,47.36
2023-10-29T10:12:48.877Z,47.65
2023-10-29T10:13:37.605Z,48.04
2023-10-29T10:14:27.119Z,48.53
2023-10-29T10:15:06.193Z,48.50
2023-10-29T10:15:39.142Z,48.96
2023-10-29T10:16:14.345Z,48.92
2023-10-29T10:16:47.778Z,47.88
2023-10-29T10:17:20.313Z,48.02
2023-10-29T10:18:01.238Z,48.70
2023-10-29T10:18:50.332Z,47.95
2023-10-29T10:19:22.885Z,47.54
2023-10-29T10:20:07.693Z,47.54
2023-10-29T10:20:40.322Z,46.24
2023-10-29T10:21:12.931Z,46.66
2023-10-29T10:21:45.510Z,47.27
2023-10-29T10:22:35.831Z,48.04
2023-10-29T10:23:12.152Z,48.74
2023-10-29T10:23:52.173Z,48.15
2023-10-29T10:24:37.257Z,49.35
2023-10-29T10:25:19.106Z,48.84
2023-10-29T10:26:00.302Z,49.61
2023-10-29T10:26:35.372Z,48.96
2023-10-29T10:27:08.705Z,49.44
2023-10-29T10:27:49.082Z,49.25
2023-10-29T10:28:21.708Z,49.95
2023-10-29T10:28:56.509Z,50.70
2023-10-29T10:29:32.976Z,50.43
2023-10-29T10:30:24.942Z,49.20
2023-10-29T10:30:57.627Z,50.25
2023-10-29T10:31:32.602Z,50.11
2023-10-29T10:32:07.076Z,48.96
2023-10-29T10:32:39.698Z,49.83
2023-10-29T10:33:22.229Z,49.72
2023-10-29T10:34:15.148Z,50.04
2023-10-29T10:34:52.914Z,50.39
2023-10-29T10:35:59.049Z,51.26
2023-10-29T10:36:32.739Z,50.42
2023-10-29T10:37:05.665Z,49.44
2023-10-29T10:37:54.225Z,49.21
2023-10-29T10:38:26.704Z,48.73
2023-10-29T10:38:59.229Z,49.17
2023-10-29T10:39:35.912Z,49.11
2023-10-29T10:40:24.597Z,50.12
2023-10-29T10:41:01.130Z,51.86
2023-10-29T10:41:47.225Z,51.15
2023-10-29T10:42:26.297Z,51.87
2023-10-29T10:42:58.854Z,50.53
2023-10-29T10:43:31.771Z,51.58
2023-10-29T10:44:11.176Z,51.70
2023-10-29T10:44:44.629Z,49.95
2023-10-29T10:45:21.503Z,49.97
2023-10-29T10:45:56.352Z,50.98
2023-10-29T10:46:35.120Z,50.86
2023-10-29T10:47:07.639Z,50.40
2023-10-29T10:47:40.316Z,51.31
2023-10-29T10:48:13.277Z,51.48
2023-10-29T10:48:45.975Z,50.39
2023-10-29T10:49:19.864Z,49.89
2023-10-29T10:49:52.450Z,49.64
2023-10-29T10:50:29.098Z,50.14
2023-10-29T10:51:03.582Z,50.86
2023-10-29T10:51:39.359Z,52.06
2023-10-29T10:52:13.209Z,52.34
2023-10-29T10:52:46.189Z,51.54
2023-10-29T10:53:20.435Z,51.66
2023-10-29T10:53:53.749Z,51.25
2023-10-29T10:54:27.385Z,51.26
2023-10-29T10:55:00.247Z,51.64
2023-10-29T10:56:13.863Z,52.41
2023-10-29T10:56:47.464Z,51.53
2023-10-29T10:57:20.976Z,51.86
2023-10-29T10:57:53.516Z,52.09
2023-10-29T10:58:26.287Z,52.44
2023-10-29T10:59:01.407Z,52.04
2023-10-29T10:59:37.299Z,51.13
2023-10-29T11:00:11.969Z,51.77
2023-10-29T11:00:46.172Z,52.44
2023-10-29T11:01:19.526Z,51.42
2023-10-29T11:01:52.174Z,51.18
2023-10-29T11:02:25.263Z,52.77
2023-10-29T11:02:58.454Z,53.29
2023-10-29T11:03:34.313Z,52.51
2023-10-29T11:04:09.797Z,52.34
2023-10-29T11:04:43.547Z,52.12
2023-10-29T11:05:17.680Z,52.35
2023-10-29T11:05:50.727Z,51.55
2023-10-29T11:06:23.231Z,51.12
2023-10-29T11:06:56.969Z,51.19
2023-10-29T11:07:29.700Z,50.91
2023-10-29T11:08:03.257Z,51.29
2023-10-29T11:08:37.389Z,52.02
2023-10-29T11:09:15.362Z,51.39
2023-10-29T11:09:48.037Z,51.58
2023-10-29T11:10:20.569Z,51.35
2023-10-29T11:10:55.164Z,51.27
2023-10-29T11:11:36.732Z,50.84
2023-10-29T11:12:11.102Z,50.93
2023-10-29T11:12:47.346Z,50.59
2023-10-29T11:13:24.085Z,50.89
2023-10-29T11:14:16.161Z,51.77
2023-10-29T11:15:12.052Z,52.13
2023-10-29T11:15:48.506Z,51.90
2023-10-29T11:16:27.716Z,52.13
2023-10-29T11:17:01.045Z,52.02
2023-10-29T11:17:55.456Z,52.22
2023-10-29T11:18:34.796Z,52.65
2023-10-29T11:19:45.653Z,52.29
2023-10-29T11:20:50.623Z,52.46
2023-10-29T11:21:36.052Z,52.67
2023-10-29T11:22:18.529Z,53.58
2023-10-29T11:22:52.571Z,53.36
2023-10-29T11:23:25.392Z,53.60
2023-10-29T11:24:32.920Z,52.82
2023-10-29T11:25:12.575Z,52.68
2023-10-29T11:25:45.108Z,52.49
2023-10-29T11:26:24.900Z,52.66
2023-10-29T11:27:38.729Z,52.71
2023-10-29T11:28:25.961Z,52.35
2023-10-29T11:28:58.484Z,52.88
2023-10-29T11:29:43.675Z,53.09
2023-10-29T11:30:23.654Z,53.04
2023-10-29T11:31:15.734Z,53.76
2023-10-29T11:31:48.327Z,53.86
2023-10-29T11:32:27.392Z,53.37
2023-10-29T11:33:16.897Z,52.63
2023-10-29T11:33:58.212Z,52.15
2023-10-29T11:34:30.756Z,51.82
2023-10-29T11:35:17.948Z,52.52
2023-10-29T11:35:50.528Z,53.06
2023-10-29T11:36:43.849Z,53.31
2023-10-29T11:37:40.693Z,53.57
2023-10-29T11:38:31.260Z,52.82
2023-10-29T11:39:23.897Z,53.02
2023-10-29T11:39:56.467Z,53.39
2023-10-29T11:40:33.519Z,53.91
2023-10-29T11:41:36.916Z,53.46
2023-10-29T11:42:26.032Z,53.76
2023-10-29T11:43:15.132Z,52.72
2023-10-29T11:43:47.622Z,53.70
2023-10-29T11:44:23.226Z,54.28
2023-10-29T11:45:30.620Z,54.24
2023-10-29T11:46:03.613Z,53.15
2023-10-29T11:46:56.464Z,52.87
2023-10-29T11:47:28.980Z,52.28
2023-10-29T11:48:10.830Z,51.97
2023-10-29T11:49:03.785Z,51.59
2023-10-29T11:49:45.507Z,52.44
2023-10-29T11:50:18.020Z,52.81
2023-10-29T11:51:10.129Z,53.24
2023-10-29T11:51:57.083Z,53.03
2023-10-29T11:52:41.394Z,53.09
2023-10-29T11:53:27.027Z,52.92
2023-10-29T11:54:05.477Z,53.28
2023-10-29T11:54:40.204Z,53.72
2023-10-29T11:55:12.799Z,53.50
2023-10-29T11:55:47.076Z,54.09
2023-10-29T11:56:20.869Z,53.53
2023-10-29T11:56:53.766Z,52.78
2023-10-29T11:57:26.429Z,52.88
2023-10-29T11:58:00.242Z,52.79
2023-10-29T11:58:33.257Z,53.15
2023-10-29T11:59:06.849Z,53.41
2023-10-29T11:59:55.694Z,53.58
2023-10-29T12:00:41.321Z,53.66
2023-10-29T12:01:19.667Z,53.77
2023-10-29T12:01:52.793Z,54.27
2023-10-29T12:02:26.605Z,53.13
2023-10-29T12:02:59.233Z,53.12
2023-10-29T12:03:32.354Z,52.82
2023-10-29T12:04:05.736Z,52.25
2023-10-29T12:04:38.365Z,52.47
2023-10-29T12:05:11.663Z,52.27
2023-10-29T12:05:51.079Z,52.07
2023-10-29T12:06:47.916Z,52.07
2023-10-29T12:07:26.930Z,52.80
2023-10-29T12:08:02.870Z,53.40
2023-10-29T12:08:35.382Z,52.98
2023-10-29T12:09:19.673Z,52.95
2023-10-29T12:10:02.646Z,53.21
2023-10-29T12:10:49.270Z,53.98
2023-10-29T12:11:26.804Z,54.43
2023-10-29T12:12:10.131Z,54.80
2023-10-29T12:12:52.425Z,53.71
2023-10-29T12:13:24.994Z,53.41
2023-10-29T12:13:57.496Z,53.15
2023-10-29T12:14:44.825Z,53.13
2023-10-29T12:15:17.905Z,53.28
2023-10-29T12:16:03.394Z,53.57
2023-10-29T12:16:36.811Z,53.86
2023-10-29T12:17:11.011Z,54.27
2023-10-29T12:17:46.591Z,54.43
2023-10-29T12:18:21.612Z,54.67
2023-10-29T12:18:56.195Z,53.65
2023-10-29T12:19:42.248Z,52.47
2023-10-29T12:20:24.840Z,52.77
2023-10-29T12:21:12.409Z,52.59
2023-10-29T12:21:53.957Z,52.63
2023-10-29T12:22:33.192Z,52.87
2023-10-29T12:23:05.765Z,52.15
2023-10-29T12:23:39.645Z,52.26
2023-10-29T12:24:12.424Z,53.15
2023-10-29T12:24:46.866Z,53.52
2023-10-29T12:25:19.811Z,53.25
2023-10-29T12:25:52.313Z,53.16
2023-10-29T12:26:29.173Z,52.65
2023-10-29T12:27:01.949Z,52.59
2023-10-29T12:27:35.479Z,52.09
2023-10-29T12:28:09.374Z,53.13
2023-10-29T12:28:42.396Z,53.25
2023-10-29T12:29:15.540Z,52.97
2023-10-29T12:29:48.136Z,53.03
2023-10-29T12:30:40.417Z,52.89
2023-10-29T12:31:25.969Z,53.19
2023-10-29T12:31:58.580Z,52.73
2023-10-29T12:32:31.308Z,52.80
2023-10-29T12:33:23.780Z,52.46
2023-10-29T12:34:00.436Z,52.49
2023-10-29T12:34:53.337Z,52.11
2023-10-29T12:35:35.897Z,52.39
2023-10-29T12:36:15.561Z,52.47
2023-10-29T12:36:52.788Z,52.64
2023-10-29T12:37:29.120Z,52.14
2023-10-29T12:38:02.554Z,52.26
2023-10-29T12:38:39.829Z,52.29
2023-10-29T12:39:14.837Z,52.44
2023-10-29T12:39:47.985Z,53.07
2023-10-29T12:40:20.542Z,53.17
2023-10-29T12:41:10.696Z,53.05
2023-10-29T12:41:53.200Z,53.26
2023-10-29T12:42:53.683Z,53.10
2023-10-29T12:43:37.229Z,52.98
2023-10-29T12:44:17.275Z,53.39
2023-10-29T12:44:54.533Z,53.12
2023-10-29T12:45:28.785Z,52.75
2023-10-29T12:46:01.811Z,52.90
2023-10-29T12:46:34.436Z,53.15
2023-10-29T12:47:07.511Z,53.57
2023-10-29T12:47:40.019Z,53.39
2023-10-29T12:48:15.536Z,53.29
2023-10-29T12:49:09.308Z,53.81
2023-10-29T12:49:41.849Z,53.75
2023-10-29T12:50:14.319Z,53.80
2023-10-29T12:50:54.282Z,53.83
2023-10-29T12:51:31.704Z,54.16
2023-10-29T12:52:13.723Z,54.21
2023-10-29T12:52:46.206Z,54.34
2023-10-29T12:53:23.426Z,54.56
2023-10-29T12:54:19.063Z,54.97
2023-10-29T12:54:51.685Z,53.48
2023-10-29T12:55:24.280Z,53.54
2023-10-29T12:55:58.863Z,53.79
2023-10-29T12:56:31.348Z,53.58
2023-10-29T12:57:04.144Z,53.77
2023-10-29T12:57:36.716Z,53.80
2023-10-29T12:58:09.205Z,53.40
2023-10-29T12:58:41.729Z,53.48
2023-10-29T12:59:14.216Z,53.54
2023-10-29T12:59:48.398Z,53.65
2023-10-29T13:00:21.505Z,53.91
2023-10-29T13:00:56.872Z,54.24
2023-10-29T13:01:29.936Z,53.93
2023-10-29T13:02:07.730Z,54.61
2023-10-29T13:02:40.625Z,54.52
2023-10-29T13:03:13.347Z,54.62
2023-10-29T13:03:46.058Z,54.34
2023-10-29T13:04:18.941Z,54.45
2023-10-29T13:04:51.557Z,54.51
2023-10-29T13:05:24.077Z,54.73
2023-10-29T13:05:56.702Z,54.50
2023-10-29T13:06:29.260Z,54.46
2023-10-29T13:07:08.867Z,55.16
2023-10-29T13:07:42.970Z,54.89
2023-10-29T13:08:17.192Z,54.38
2023-10-29T13:08:49.829Z,54.10
2023-10-29T13:09:27.037Z,54.56
2023-10-29T13:10:05.339Z,54.68
2023-10-29T13:10:38.049Z,54.96
2023-10-29T13:11:12.838Z,54.88
2023-10-29T13:11:47.201Z,55.08
2023-10-29T13:12:19.897Z,55.06
2023-10-29T13:12:53.137Z,55.01
2023-10-29T13:13:26.434Z,55.45
2023-10-29T13:14:08.704Z,55.04
2023-10-29T13:14:42.001Z,54.96
2023-10-29T13:15:14.627Z,54.37
2023-10-29T13:15:47.140Z,54.56
2023-10-29T13:16:19.753Z,55.16
2023-10-29T13:16:55.748Z,54.76
2023-10-29T13:17:28.364Z,54.42
2023-10-29T13:18:01.424Z,54.44
2023-10-29T13:18:34.096Z,54.69
2023-10-29T13:19:08.049Z,54.91
2023-10-29T13:19:40.722Z,55.44
2023-10-29T13:20:13.510Z,55.49
2023-10-29T13:20:46.269Z,55.09
2023-10-29T13:21:19.652Z,55.52
2023-10-29T13:21:53.541Z,55.96
2023-10-29T13:22:26.402Z,55.24
2023-10-29T13:22:59.133Z,55.32
2023-10-29T13:23:31.663Z,55.09
2023-10-29T13:24:05.120Z,55.31
2023-10-29T13:24:38.016Z,55.17
2023-10-29T13:25:10.546Z,55.48
2023-10-29T13:25:43.093Z,55.86
2023-10-29T13:26:15.583Z,56.57
2023-10-29T13:26:49.261Z,56.15
2023-10-29T13:27:21.851Z,55.54
2023-10-29T13:27:54.416Z,55.68
2023-10-29T13:28:27.005Z,55.74
2023-10-29T13:28:59.511Z,55.53
2023-10-29T13:29:32.079Z,55.19
2023-10-29T13:30:06.871Z,55.82
2023-10-29T13:30:39.374Z,56.28
2023-10-29T13:31:11.888Z,56.18
2023-10-29T13:31:47.021Z,55.89
2023-10-29T13:32:21.097Z,55.67
2023-10-29T13:32:53.921Z,55.76
2023-10-29T13:33:26.645Z,55.60
2023-10-29T13:34:00.389Z,55.63
2023-10-29T13:34:34.259Z,56.18
2023-10-29T13:35:07.759Z,55.98
2023-10-29T13:35:40.877Z,56.12
2023-10-29T13:36:13.448Z,56.14
2023-10-29T13:36:46.074Z,55.26
2023-10-29T13:37:19.495Z,55.43
2023-10-29T13:37:51.972Z,55.60
2023-10-29T13:38:25.635Z,55.52
2023-10-29T13:38:58.223Z,55.75
2023-10-29T13:39:30.790Z,56.31
2023-10-29T13:40:03.420Z,56.04
2023-10-29T13:40:39.024Z,56.47
2023-10-29T13:41:13.239Z,56.24
2023-10-29T13:41:45.810Z,55.86
2023-10-29T13:42:19.832Z,55.72
2023-10-29T13:42:52.463Z,55.77
2023-10-29T13:43:24.983Z,56.39
2023-10-29T13:43:57.703Z,55.87
2023-10-29T13:44:30.212Z,55.58
2023-10-29T13:45:02.840Z,55.96
2023-10-29T13:45:35.646Z,56.29
2023-10-29T13:46:08.212Z,56.84
2023-10-29T13:46:40.787Z,56.93
2023-10-29T13:47:13.907Z,56.50
2023-10-29T13:47:46.483Z,56.64
2023-10-29T13:48:19.116Z,56.27
2023-10-29T13:48:54.287Z,56.52
2023-10-29T13:49:26.828Z,56.29
2023-10-29T13:49:59.511Z,56.64
2023-10-29T13:50:32.064Z,57.17
2023-10-29T13:51:06.353Z,57.31
2023-10-29T13:51:39.387Z,57.16
2023-10-29T13:52:12.650Z,57.32
2023-10-29T13:52:45.147Z,57.17
2023-10-29T13:53:17.730Z,56.63
2023-10-29T13:53:50.388Z,57.07
2023-10-29T13:54:23.543Z,57.37
2023-10-29T13:54:57.433Z,56.47
2023-10-29T13:55:30.103Z,56.41
2023-10-29T13:56:13.102Z,57.11
2023-10-29T13:56:45.886Z,57.43
2023-10-29T13:57:18.443Z,57.66
2023-10-29T13:57:50.956Z,57.04
2023-10-29T13:58:23.458Z,56.05
2023-10-29T13:58:56.210Z,56.10
2023-10-29T13:59:28.724Z,56.14
2023-10-29T14:00:01.404Z,56.66
2023-10-29T14:00:34.031Z,56.98
2023-10-29T14:01:18.108Z,56.76
2023-10-29T14:01:50.662Z,56.52
2023-10-29T14:02:23.262Z,57.00
2023-10-29T14:02:58.279Z,56.89
2023-10-29T14:03:31.771Z,56.65
2023-10-29T14:04:04.554Z,57.03
2023-10-29T14:04:37.136Z,56.77
2023-10-29T14:05:13.264Z,56.65
2023-10-29T14:05:48.022Z,56.87
2023-10-29T14:06:21.203Z,57.26
2023-10-29T14:06:53.702Z,56.22
2023-10-29T14:07:27.870Z,56.03
2023-10-29T14:08:01.406Z,56.07
2023-10-29T14:08:33.923Z,56.15
2023-10-29T14:09:07.534Z,55.83
2023-10-29T14:09:40.219Z,55.65
2023-10-29T14:10:12.716Z,55.62
2023-10-29T14:10:45.287Z,55.73
2023-10-29T14:11:18.218Z,56.29
2023-10-29T14:11:50.912Z,56.01
2023-10-29T14:12:23.737Z,56.25
2023-10-29T14:12:56.275Z,56.89
2023-10-29T14:13:28.755Z,56.46
2023-10-29T14:14:01.286Z,56.07
2023-10-29T14:14:33.795Z,56.37
2023-10-29T14:15:07.240Z,55.97
2023-10-29T14:15:39.811Z,56.05
2023-10-29T14:18:04.832Z,55.86
2023-10-29T14:18:37.469Z,55.18
2023-10-29T14:19:10.740Z,55.49
2023-10-29T14:19:43.287Z,55.84
2023-10-29T14:20:15.893Z,55.90
2023-10-29T14:20:48.616Z,55.98
2023-10-29T14:21:22.081Z,56.25
2023-10-29T14:21:55.994Z,56.55
2023-10-29T14:22:28.498Z,56.28
2023-10-29T14:23:01.160Z,56.00
2023-10-29T14:23:33.675Z,56.04
2023-10-29T14:24:09.653Z,56.65
2023-10-29T14:24:42.253Z,56.96
2023-10-29T14:25:14.842Z,57.05
2023-10-29T14:25:49.970Z,56.92
2023-10-29T14:26:22.459Z,57.09
2023-10-29T14:26:56.880Z,56.32
2023-10-29T14:27:29.466Z,56.01
2023-10-29T14:28:02.253Z,56.01
2023-10-29T14:28:35.164Z,56.17
2023-10-29T14:29:07.689Z,55.48
2023-10-29T14:29:40.344Z,55.45
2023-10-29T14:30:13.809Z,55.09
2023-10-29T14:30:46.445Z,55.11
2023-10-29T14:31:19.009Z,55.42
2023-10-29T14:31:51.605Z,55.85
2023-10-29T14:32:24.646Z,55.11
2023-10-29T14:32:57.494Z,54.38
2023-10-29T14:33:30.392Z,54.67
2023-10-29T14:34:05.064Z,54.89
2023-10-29T14:34:37.916Z,54.18
2023-10-29T14:35:10.520Z,54.39
2023-10-29T14:35:43.006Z,54.76
2023-10-29T14:36:15.729Z,54.60
2023-10-29T14:36:48.226Z,54.26
2023-10-29T14:38:02.100Z,54.66
2023-10-29T14:38:34.883Z,54.44
2023-10-29T14:39:08.502Z,54.59
2023-10-29T14:39:41.407Z,55.04
2023-10-29T14:40:13.915Z,55.03
2023-10-29T14:40:46.648Z,55.04
2023-10-29T14:41:19.141Z,55.56
2023-10-29T14:41:52.659Z,56.06
2023-10-29T14:42:30.065Z,56.05
2023-10-29T14:43:20.673Z,56.00
2023-10-29T14:43:54.431Z,56.67
2023-10-29T14:44:26.933Z,56.64
2023-10-29T14:44:59.425Z,55.59
2023-10-29T14:45:31.948Z,54.74
2023-10-29T14:46:05.087Z,54.74
2023-10-29T14:46:38.348Z,55.19
2023-10-29T14:47:11.574Z,55.58
2023-10-29T14:47:44.722Z,55.49
2023-10-29T14:48:17.629Z,55.24
2023-10-29T14:48:50.215Z,55.06
2023-10-29T14:49:22.724Z,54.65
2023-10-29T14:49:55.421Z,55.01
2023-10-29T14:50:27.952Z,55.14
2023-10-29T14:51:04.620Z,54.96
2023-10-29T14:51:37.168Z,55.53
2023-10-29T14:52:09.650Z,55.33
2023-10-29T14:52:42.331Z,55.53
2023-10-29T14:53:14.925Z,55.30
2023-10-29T14:53:47.497Z,55.42
2023-10-29T14:54:20.197Z,55.38
2023-10-29T14:54:52.723Z,55.01
2023-10-29T14:55:25.265Z,55.29
2023-10-29T14:55:57.828Z,55.98
2023-10-29T14:56:30.311Z,55.49
2023-10-29T14:57:13.817Z,55.71
2023-10-29T14:57:54.877Z,55.50
2023-10-29T14:58:27.412Z,55.41
2023-10-29T14:58:59.915Z,54.74
2023-10-29T14:59:35.877Z,54.36
2023-10-29T15:00:10.616Z,54.33
2023-10-29T15:00:44.111Z,55.63
2023-10-29T15:01:16.806Z,55.07
2023-10-29T15:01:49.374Z,55.12
2023-10-29T15:02:21.954Z,54.92
2023-10-29T15:02:54.600Z,54.59
2023-10-29T15:03:28.641Z,54.48
2023-10-29T15:04:01.541Z,54.70
2023-10-29T15:04:34.111Z,55.21
2023-10-29T15:05:08.066Z,55.39
2023-10-29T15:05:41.187Z,54.75
2023-10-29T15:06:13.768Z,54.71
2023-10-29T15:06:46.310Z,55.04
2023-10-29T15:07:18.808Z,55.20
2023-10-29T15:07:51.328Z,55.34
2023-10-29T15:08:24.234Z,55.03
2023-10-29T15:08:56.862Z,55.02
2023-10-29T15:09:29.397Z,55.06
2023-10-29T15:10:01.908Z,54.86
2023-10-29T15:10:34.709Z,54.97
2023-10-29T15:11:07.429Z,55.48
2023-10-29T15:11:40.104Z,55.82
2023-10-29T15:12:14.761Z,55.76
2023-10-29T15:12:47.307Z,55.49
2023-10-29T15:13:21.058Z,55.51
2023-10-29T15:13:53.543Z,55.58
2023-10-29T15:14:26.034Z,56.37
2023-10-29T15:14:58.722Z,55.89
2023-10-29T15:15:33.341Z,55.54
2023-10-29T15:16:06.028Z,55.99
2023-10-29T15:16:38.816Z,55.78
2023-10-29T15:17:11.392Z,55.64
2023-10-29T15:17:45.782Z,55.84
2023-10-29T15:18:19.446Z,56.15
2023-10-29T15:18:52.140Z,56.23
2023-10-29T15:19:36.132Z,56.08
2023-10-29T15:20:09.976Z,56.24
2023-10-29T15:20:54.471Z,56.45
2023-10-29T15:21:33.996Z,56.10
2023-10-29T15:22:07.201Z,55.74
2023-10-29T15:22:40.323Z,55.70
2023-10-29T15:23:13.563Z,56.36
2023-10-29T15:23:46.051Z,55.56
2023-10-29T15:24:18.622Z,55.39
2023-10-29T15:24:51.186Z,56.04
2023-10-29T15:25:24.554Z,56.56
2023-10-29T15:25:57.051Z,56.23
2023-10-29T15:26:29.552Z,55.92
2023-10-29T15:27:02.171Z,55.79
2023-10-29T15:27:38.530Z,56.36
2023-10-29T15:28:11.380Z,56.19
2023-10-29T15:28:43.882Z,55.98
2023-10-29T15:29:16.398Z,56.41
2023-10-29T15:29:52.506Z,56.95
2023-10-29T15:30:25.100Z,56.57
2023-10-29T15:31:06.686Z,57.14
2023-10-29T15:31:39.276Z,57.39
2023-10-29T15:32:11.804Z,57.36
2023-10-29T15:32:44.347Z,57.23
2023-10-29T15:33:17.166Z,57.18
2023-10-29T15:33:49.758Z,57.49
2023-10-29T15:34:22.636Z,57.72
2023-10-29T15:34:58.068Z,57.95
2023-10-29T15:35:34.693Z,58.00
2023-10-29T15:36:09.755Z,57.83
2023-10-29T15:36:42.276Z,58.11
2023-10-29T15:37:14.804Z,58.21
2023-10-29T15:37:47.305Z,58.13
2023-10-29T15:38:19.834Z,58.13
2023-10-29T15:38:52.516Z,58.20
2023-10-29T15:39:25.226Z,58.28
2023-10-29T15:39:58.353Z,58.48
2023-10-29T15:40:32.035Z,59.06
2023-10-29T15:41:07.686Z,59.32
2023-10-29T15:41:41.002Z,59.13
2023-10-29T15:42:13.469Z,58.75
2023-10-29T15:42:46.001Z,58.88
2023-10-29T15:43:18.516Z,59.28
2023-10-29T15:43:52.595Z,59.12
2023-10-29T15:44:25.140Z,59.25
2023-10-29T15:44:57.701Z,59.20
2023-10-29T15:45:30.342Z,59.58
2023-10-29T15:46:05.658Z,59.57
2023-10-29T15:46:38.634Z,59.98
2023-10-29T15:47:11.366Z,59.81
2023-10-29T15:47:43.900Z,59.76
2023-10-29T15:48:16.558Z,59.97
2023-10-29T15:48:49.855Z,60.19
2023-10-29T15:49:24.569Z,60.33
2023-10-29T15:49:57.691Z,60.32
2023-10-29T15:50:30.241Z,60.54
2023-10-29T15:51:09.053Z,60.60
2023-10-29T15:51:42.205Z,60.66
2023-10-29T15:52:14.732Z,60.52
2023-10-29T15:52:47.252Z,60.76
2023-10-29T15:53:20.589Z,60.64
2023-10-29T15:53:54.780Z,60.74
2023-10-29T15:54:28.751Z,60.89
2023-10-29T15:55:01.460Z,61.02
2023-10-29T15:55:34.106Z,61.09
2023-10-29T15:56:10.525Z,60.87
2023-10-29T15:56:45.071Z,60.74
2023-10-29T15:57:17.830Z,61.01
2023-10-29T15:57:50.415Z,60.89
2023-10-29T15:58:23.258Z,61.32
2023-10-29T15:58:55.775Z,61.32
2023-10-29T15:59:29.000Z,60.96
2023-10-29T16:00:01.777Z,60.94
2023-10-29T16:00:38.297Z,60.75
2023-10-29T16:01:18.799Z,60.82
2023-10-29T16:01:51.789Z,61.03
2023-10-29T16:02:24.281Z,61.18
2023-10-29T16:02:56.959Z,61.46
2023-10-29T16:03:29.691Z,61.13
2023-10-29T16:04:03.728Z,61.02
2023-10-29T16:04:36.347Z,61.00
2023-10-29T16:05:09.118Z,60.86
2023-10-29T16:05:41.583Z,60.98
2023-10-29T16:06:14.352Z,60.75
2023-10-29T16:06:46.906Z,60.80
2023-10-29T16:07:19.417Z,60.79
2023-10-29T16:07:51.909Z,60.91
2023-10-29T16:08:24.432Z,60.75
2023-10-29T16:08:56.987Z,60.81
2023-10-29T16:09:29.562Z,60.72
2023-10-29T16:10:02.133Z,60.99
2023-10-29T16:10:35.065Z,60.84
2023-10-29T16:11:20.492Z,60.81
2023-10-29T16:11:53.008Z,60.98
2023-10-29T16:12:25.748Z,60.83
2023-10-29T16:12:58.297Z,61.07
2023-10-29T16:13:30.781Z,60.88
2023-10-29T16:14:03.301Z,61.01
2023-10-29T16:14:36.619Z,60.66
2023-10-29T16:15:09.434Z,60.36
2023-10-29T16:15:41.972Z,60.51
2023-10-29T16:16:14.527Z,60.49
2023-10-29T16:16:47.299Z,60.65
2023-10-29T16:17:19.830Z,60.84
2023-10-29T16:17:52.589Z,60.78
2023-10-29T16:18:25.162Z,60.51
2023-10-29T16:18:58.152Z,60.32
2023-10-29T16:19:30.669Z,60.89
2023-10-29T16:20:07.091Z,60.89
2023-10-29T16:20:39.614Z,60.61
2023-10-29T16:21:12.137Z,60.86
2023-10-29T16:21:45.453Z,60.73
2023-10-29T16:22:17.955Z,60.38
2023-10-29T16:22:50.476Z,60.70
2023-10-29T16:23:23.236Z,60.90
2023-10-29T16:23:55.792Z,60.80
2023-10-29T16:24:30.300Z,60.68
2023-10-29T16:25:03.669Z,60.97
2023-10-29T16:25:36.160Z,61.18
2023-10-29T16:26:08.679Z,61.29
2023-10-29T16:26:42.070Z,61.03
2023-10-29T16:27:14.645Z,60.94
2023-10-29T16:27:47.202Z,60.84
2023-10-29T16:28:19.701Z,60.90
2023-10-29T16:28:52.253Z,61.25
2023-10-29T16:29:24.938Z,61.10